Cardiff-Wales, United Kingdom

2:52 AM BST on July 25, 2016 (GMT +0100)
Cardiff | | Change Station

Elev 220 ft 51.40 °N, 3.34 °W | Updated 32 minutes ago

Overcast
Overcast
61 °F
Feels Like 61 °F
N
9
Wind Variable Wind from West

Today
High -- | Low -- °F
--% Chance of Precip.
Yesterday
High -- | Low -- °F
Precip. -- in
Pressure 30.06 in
Visibility 6.2 miles
Clouds Mostly Cloudy 1000 ft
Overcast 2600 ft
Dew Point 57 °F
Humidity 88%
Rainfall 0.00 in
Snow Depth Not available.
5:27 AM 9:11 PM
Waning Gibbous, 71% visible
METAR EGFF 250120Z AUTO 28008KT 9999 BKN010 OVC026 16/14 Q1018
Pressure 30.06 in
Visibility 6.2 miles
Clouds Mostly Cloudy 1000 ft
Overcast 2600 ft
Dew Point 57 °F
Humidity 88%
Rainfall 0.00 in
Snow Depth Not available.
5:27 AM 9:11 PM
Waning Gibbous, 71% visible
METAR EGFF 250120Z AUTO 28008KT 9999 BKN010 OVC026 16/14 Q1018

10-Day Weather Forecast

×

Almanac

Astronomy

Jul. 25, 2016 Rise Set
Actual Time
Civil Twilight
Nautical Twilight
Astronomical Twilight
Moon
Length of Visible Light
Length of Day
Tomorrow will be .
, % of the Moon is Illuminated

Today's Extremes

Country Highs Country Lows

Community

WunderPhotos

Upload Photos

1,927,233 photos uploaded!

WunderBlog® & News

Nearby

Air Quality

  Air Quality AQ Index Pollutant
Not available.

Snow Depth

Station Depth Elevation

Earthquake Activity

City Distance Mag. Time & Date
Minimum magnitude displayed is 2.5.

Coastal Water Temperatures

Place Temperature

Stations

Nearby Weather Stations

Station Location Temp. Windchill Dew Point Humidity Wind Precip. Elev Updated Type